الصفحة الرئيسية
METAR-TAF:

METAR-TAF

مطار :

Ponta Delgada, الأزور, البرتغال

دائرة عرض: 37-44N, خط طول: 025-42W, ارتفاع: 71 متر

مراقبة الطقس الحالي

تاريخ ووقت الإصدار 23 دقيقة قبل الساعة 17:30UTC
ريح 13 عقدة من الشمال الغربي
درجة الحرارة 15°درجة مئوية
الرطوبة 59%
ضغط 1013 hPa
الرؤية 10 كم أو أكثر
غيوم مفككة على ارتفاع 1800 قدم
غيوم قليلة على ارتفاع 2000 قدم, مزن ركامية عمودية.

METAR: LPPD 171730Z 32013KT 9999 BKN018 FEW020TCU 15/07 Q1013

زمن: 16:53 (17:53 UTC)

توقعات

تاريخ ووقت الإصدار 53 دقيقة قبل الساعة 17:00UTC
التوقعات صالحة من17 الساعة 18 UTC إلى 18 الساعة 18 UTC
ريح 13 عقدة من الشمال/الشمال الغربي
الرؤية 10 كم أو أكثر
غيوم متفرقة على ارتفاع 2000 قدم
أصبح
من 17 الساعة 18 UTC إلى 17 الساعة 21 UTC
ريح 8 عقدة من الشمال/الشمال الغربي
أصبح
من 18 الساعة 15 UTC إلى 18 الساعة 18 UTC
ريح 10 عقدة من الغرب/الجنوب الغربي
غيوم متفرقة على ارتفاع 1500 قدم
غيوم مفككة على ارتفاع 3000 قدم

TAF: LPPD 171700Z 1718/1818 33013KT 9999 SCT020 BECMG 1718/1721 34008KT BECMG 1815/1818 24010KT SCT015 BKN030

أرصاد الطقس والتوقعات من أكثر من 4000 مطار (تقارير الطقس للمطار METAR والتنبؤ بالطقس بالمطارTAF).

المحطات المتاحة هي النقط الصفراء والحمراء على الخريطة.

حرك المؤشر فوق النقطة لمعرفة اسم المحطة.

ثم انقر لمعرفة أرصاد وتوقعات الطقس.

لتغيير الخارطة: اضغط على الأزرار الخضراء مع رمز الصليب الأسود للتكبير. على الزر الأخضر مع شرطة للتصغير، أو على الأسهم الخضراء للخرائط المجاورة.


METAR-TAF: